Canefield Airport

Partly cloudy with adjacent showers
30oC (86oF)

Partly cloudy with adjacent showers


Winds: East south easterly @ 05kts / 09km/h

Humidity: 58%

Barometric Pressure: 1009 mb

Accumulated Rainfall for October: 11.3 mm

Updated: 16:00 local time (20:00 UTC)

Douglas-Charles Airport

Cloudy and breezy
28oC (82oF)

Cloudy and breezy


Winds: East south easterly @ 13kts / 24km/h gusting to 26kts/ 48km/h

Humidity: 87%

Barometric Pressure: 1013 mb

Accumulated Rainfall for October: 34.1 mm

Updated: 21:00 local time (01:00 UTC)

Satellite Imagery

Satellite Imagery
Click image for larger view. (Source: National Hurricane Center).

Aviation Routine Report (METAR)

Douglas-Charles: METAR TDPD 050100Z 11013G26KT 9999 BKN016 28/25 Q1013=
Canefield: METAR TDCF 042000Z 11005KT 9999 SCT018 30/21 Q1009=